Time;durP1;ratioP1;P1;durP2;ratioP2;P2;SDS_P1;SDS_P2;PMS_P1;PMS_P2;Temp;Humidity;BMP_temperature;BMP_pressure;BME280_temperature;BME280_humidity;BME280_pressure;Samples;Min_cycle;Max_cycle;Signal;HPM_P1;HPM_P2
2024/02/11 00:01:22;;;;;;;4.63;3.20;;;11.50;99.90;;;;;;5043490;28;20021;-67
2024/02/11 00:03:48;;;;;;;4.22;3.28;;;11.50;99.90;;;;;;5047500;28;20059;-66
2024/02/11 00:06:14;;;;;;;4.35;3.15;;;11.50;99.90;;;;;;5046201;28;20052;-67
2024/02/11 00:08:40;;;;;;;4.35;3.55;;;11.50;99.90;;;;;;5047619;28;20055;-67
2024/02/11 00:11:06;;;;;;;5.75;4.10;;;11.50;99.90;;;;;;5048260;28;20032;-67
2024/02/11 00:13:32;;;;;;;4.18;3.20;;;11.50;99.90;;;;;;5048448;28;20043;-66
2024/02/11 00:16:01;;;;;;;5.20;4.00;;;11.50;99.90;;;;;;5046922;28;20063;-66
2024/02/11 00:18:28;;;;;;;4.25;3.28;;;11.50;99.90;;;;;;5046499;28;20059;-66
2024/02/11 00:20:57;;;;;;;5.35;3.70;;;11.50;99.90;;;;;;5048384;28;20035;-67
2024/02/11 00:23:22;;;;;;;5.07;3.35;;;11.50;99.90;;;;;;5044875;28;20112;-66
2024/02/11 00:25:53;;;;;;;5.55;4.00;;;11.50;99.90;;;;;;5047443;28;20730;-67
2024/02/11 00:28:21;;;;;;;5.55;4.00;;;11.50;99.90;;;;;;5045836;28;20026;-66
2024/02/11 00:30:48;;;;;;;5.35;4.03;;;11.50;99.90;;;;;;5046051;28;20024;-66
2024/02/11 00:33:14;;;;;;;4.68;3.55;;;11.50;99.90;;;;;;5043530;28;20491;-67
2024/02/11 00:35:40;;;;;;;6.25;4.15;;;11.50;99.90;;;;;;5048700;28;20032;-67
2024/02/11 00:38:06;;;;;;;4.72;3.50;;;11.50;99.90;;;;;;5046589;28;20091;-67
2024/02/11 00:40:32;;;;;;;5.32;3.78;;;11.50;99.90;;;;;;5047289;28;20057;-67
2024/02/11 00:42:59;;;;;;;4.90;3.42;;;11.50;99.90;;;;;;5047732;28;20450;-66
2024/02/11 00:45:26;;;;;;;4.25;3.10;;;11.50;99.90;;;;;;5047422;28;20032;-65
2024/02/11 00:47:52;;;;;;;4.60;3.40;;;11.50;99.90;;;;;;5045746;28;20476;-66
2024/02/11 00:50:17;;;;;;;4.82;3.80;;;11.50;99.90;;;;;;5046989;28;20032;-66
2024/02/11 00:52:48;;;;;;;5.53;4.03;;;11.50;99.90;;;;;;5047737;28;20731;-66
2024/02/11 00:55:14;;;;;;;5.68;4.18;;;11.50;99.90;;;;;;5046195;28;20468;-66
2024/02/11 00:57:41;;;;;;;4.47;3.47;;;11.50;99.90;;;;;;5047301;28;20058;-67
2024/02/11 01:00:11;;;;;;;5.28;3.95;;;11.50;99.90;;;;;;5046197;28;20021;-67
2024/02/11 01:02:39;;;;;;;4.40;3.40;;;11.50;99.90;;;;;;5046075;28;20033;-67
2024/02/11 01:05:05;;;;;;;5.63;3.90;;;11.50;99.90;;;;;;5048069;28;20036;-66
2024/02/11 01:07:38;;;;;;;3.85;2.80;;;11.50;99.90;;;;;;5044339;28;20051;-67
2024/02/11 01:10:07;;;;;;;3.75;2.80;;;11.60;99.90;;;;;;5046210;28;20040;-67
2024/02/11 01:12:32;;;;;;;5.43;3.80;;;11.60;99.90;;;;;;5046214;28;20036;-66
2024/02/11 01:14:58;;;;;;;5.38;4.25;;;11.50;99.90;;;;;;5045962;28;20037;-67
2024/02/11 01:17:26;;;;;;;4.32;3.28;;;11.50;99.90;;;;;;5045504;28;21496;-67
2024/02/11 01:19:52;;;;;;;5.03;3.90;;;11.50;99.90;;;;;;5045140;28;20029;-67
2024/02/11 01:22:17;;;;;;;6.95;4.38;;;11.50;99.90;;;;;;5047140;28;20031;-66
2024/02/11 01:24:43;;;;;;;5.22;3.90;;;11.50;99.90;;;;;;5045267;28;20092;-66
2024/02/11 01:27:09;;;;;;;3.92;2.90;;;11.50;99.90;;;;;;5046154;28;20515;-67
2024/02/11 01:29:37;;;;;;;5.40;3.97;;;11.50;99.90;;;;;;5046722;28;20090;-65
2024/02/11 01:32:05;;;;;;;4.80;3.03;;;11.50;99.90;;;;;;5045768;28;20450;-67
2024/02/11 01:34:31;;;;;;;4.90;3.67;;;11.50;99.90;;;;;;5049040;28;20440;-66
2024/02/11 01:36:56;;;;;;;3.75;3.15;;;11.50;99.90;;;;;;5041710;28;20116;-66
2024/02/11 01:39:22;;;;;;;3.90;3.20;;;11.50;99.90;;;;;;5046140;28;20135;-66
2024/02/11 01:41:48;;;;;;;5.68;3.67;;;11.50;99.90;;;;;;5048192;28;20036;-66
2024/02/11 01:44:14;;;;;;;5.75;4.35;;;11.50;99.90;;;;;;5048106;28;20051;-66
2024/02/11 01:46:41;;;;;;;5.38;3.58;;;11.40;99.90;;;;;;5039573;28;20028;-66
2024/02/11 01:49:10;;;;;;;3.97;3.35;;;11.40;99.90;;;;;;5047151;28;20017;-66
2024/02/11 01:51:42;;;;;;;5.30;3.70;;;11.50;99.90;;;;;;5045023;28;20021;-66
2024/02/11 01:54:08;;;;;;;6.00;4.47;;;11.40;99.90;;;;;;5043048;28;20029;-66
2024/02/11 01:56:34;;;;;;;6.20;3.90;;;11.40;99.90;;;;;;5042046;28;20533;-66
2024/02/11 01:59:01;;;;;;;6.35;4.20;;;11.40;99.90;;;;;;5047479;28;20028;-66
2024/02/11 02:01:27;;;;;;;5.07;3.55;;;11.40;99.90;;;;;;5044477;28;20550;-66
2024/02/11 02:03:54;;;;;;;3.78;3.38;;;11.40;99.90;;;;;;5046424;28;20380;-66
2024/02/11 02:06:22;;;;;;;3.63;2.72;;;11.40;99.90;;;;;;5046903;28;20027;-67
2024/02/11 02:08:48;;;;;;;4.53;3.58;;;11.40;99.90;;;;;;5047029;28;20476;-67
2024/02/11 02:11:13;;;;;;;5.10;3.95;;;11.40;99.90;;;;;;5043869;28;20074;-66
2024/02/11 02:13:39;;;;;;;6.22;4.13;;;11.30;99.90;;;;;;5044311;28;20025;-66
2024/02/11 02:16:08;;;;;;;6.28;4.30;;;11.30;99.90;;;;;;5044634;28;20029;-65
2024/02/11 02:18:34;;;;;;;6.18;4.65;;;11.20;99.90;;;;;;5045700;28;20036;-66
2024/02/11 02:21:04;;;;;;;4.95;3.97;;;11.20;99.90;;;;;;5046778;28;20033;-66
2024/02/11 02:23:30;;;;;;;6.28;5.18;;;11.20;99.90;;;;;;5045574;28;20545;-67
2024/02/11 02:25:57;;;;;;;5.72;4.43;;;11.10;99.90;;;;;;5046900;28;20032;-66
2024/02/11 02:28:23;;;;;;;5.60;4.30;;;11.10;99.90;;;;;;5044378;28;20071;-67
2024/02/11 02:30:48;;;;;;;5.93;4.57;;;11.10;99.90;;;;;;5046974;28;20025;-65
2024/02/11 02:33:14;;;;;;;6.70;5.07;;;11.10;99.90;;;;;;5044677;28;20029;-66
2024/02/11 02:35:39;;;;;;;7.55;5.28;;;11.00;99.90;;;;;;5046374;28;20029;-66
2024/02/11 02:38:05;;;;;;;5.30;4.05;;;11.00;99.90;;;;;;5045068;28;20475;-66
2024/02/11 02:40:32;;;;;;;5.22;3.35;;;11.10;99.90;;;;;;5047903;28;20131;-67
2024/02/11 02:42:58;;;;;;;5.50;4.13;;;11.10;99.90;;;;;;5046544;28;20509;-67
2024/02/11 02:45:23;;;;;;;4.85;3.70;;;11.10;99.90;;;;;;5048296;28;20017;-67
2024/02/11 02:47:49;;;;;;;4.43;3.58;;;11.10;99.90;;;;;;5051071;28;20033;-66
2024/02/11 02:50:15;;;;;;;4.38;3.40;;;11.10;99.90;;;;;;5051098;28;20083;-67
2024/02/11 02:52:43;;;;;;;4.80;3.60;;;11.20;99.90;;;;;;5044610;28;20379;-67
2024/02/11 02:55:08;;;;;;;3.53;2.88;;;11.20;99.90;;;;;;5045006;28;20025;-67
2024/02/11 02:57:37;;;;;;;4.53;3.78;;;11.20;99.90;;;;;;5045090;28;20506;-67
2024/02/11 03:00:05;;;;;;;5.43;4.05;;;11.20;99.90;;;;;;5047582;28;20483;-67
2024/02/11 03:02:31;;;;;;;6.47;4.78;;;11.10;99.90;;;;;;5044707;28;20040;-67
2024/02/11 03:04:56;;;;;;;6.47;4.97;;;11.10;99.90;;;;;;5049415;28;20024;-67
2024/02/11 03:07:22;;;;;;;6.20;4.10;;;11.10;99.90;;;;;;5049220;28;20029;-66
2024/02/11 03:09:48;;;;;;;5.47;4.25;;;11.10;99.90;;;;;;5049308;28;20063;-67
2024/02/11 03:12:13;;;;;;;5.22;4.03;;;11.10;99.90;;;;;;5050482;28;20039;-68
2024/02/11 03:14:39;;;;;;;4.85;3.80;;;11.10;99.90;;;;;;5051072;28;20025;-67
2024/02/11 03:17:09;;;;;;;5.00;3.80;;;11.10;99.90;;;;;;5046796;28;20537;-67
2024/02/11 03:19:34;;;;;;;4.80;3.75;;;11.10;99.90;;;;;;5049667;28;20033;-66
2024/02/11 03:22:00;;;;;;;5.15;4.22;;;11.10;99.90;;;;;;5048842;28;20036;-66
2024/02/11 03:24:25;;;;;;;6.28;4.82;;;11.10;99.90;;;;;;5050463;28;20037;-66
2024/02/11 03:26:51;;;;;;;5.50;4.45;;;11.00;99.90;;;;;;5050298;28;20021;-65
2024/02/11 03:29:19;;;;;;;4.90;3.92;;;11.00;99.90;;;;;;5048228;28;20061;-66
2024/02/11 03:31:46;;;;;;;6.05;3.97;;;11.00;99.90;;;;;;5047825;28;20480;-66
2024/02/11 03:34:11;;;;;;;4.07;3.17;;;11.00;99.90;;;;;;5048267;28;20036;-67
2024/02/11 03:36:38;;;;;;;5.85;4.20;;;11.00;99.90;;;;;;5046412;28;20029;-67
2024/02/11 03:39:10;;;;;;;6.28;4.40;;;11.00;99.90;;;;;;5050498;28;20491;-67
2024/02/11 03:41:36;;;;;;;7.03;4.78;;;11.00;99.90;;;;;;5049427;28;20061;-65
2024/02/11 03:44:01;;;;;;;5.93;4.43;;;11.00;99.90;;;;;;5049708;28;20075;-66
2024/02/11 03:46:27;;;;;;;6.78;4.82;;;11.00;99.90;;;;;;5049090;28;20077;-65
2024/02/11 03:48:56;;;;;;;4.82;3.85;;;10.90;99.90;;;;;;5048970;28;20032;-65
2024/02/11 03:51:23;;;;;;;4.80;3.78;;;10.90;99.90;;;;;;5051933;28;20017;-67
2024/02/11 03:53:50;;;;;;;4.88;3.28;;;10.90;99.90;;;;;;5042998;28;20395;-66
2024/02/11 03:56:18;;;;;;;4.00;3.17;;;11.00;99.90;;;;;;5048268;28;20055;-68
2024/02/11 03:58:43;;;;;;;3.75;3.00;;;11.00;99.90;;;;;;5048336;28;20057;-67
2024/02/11 04:01:09;;;;;;;6.25;4.60;;;11.00;99.90;;;;;;5048684;28;20095;-67
2024/02/11 04:03:39;;;;;;;4.10;3.30;;;11.00;99.90;;;;;;5048377;28;20048;-68
2024/02/11 04:06:04;;;;;;;4.68;3.70;;;11.00;99.90;;;;;;5049105;28;20486;-67
2024/02/11 04:08:30;;;;;;;5.38;4.30;;;11.00;99.90;;;;;;5049644;28;20064;-68
2024/02/11 04:10:56;;;;;;;4.90;3.80;;;10.90;99.90;;;;;;5049444;28;20029;-66
2024/02/11 04:13:24;;;;;;;5.70;4.45;;;11.00;99.90;;;;;;5050415;28;20077;-67
2024/02/11 04:15:53;;;;;;;5.78;4.60;;;10.90;99.90;;;;;;5048615;28;20021;-66
2024/02/11 04:18:21;;;;;;;5.50;4.32;;;10.90;99.90;;;;;;5048533;28;20037;-68
2024/02/11 04:20:46;;;;;;;3.95;3.25;;;10.80;99.90;;;;;;5049205;28;20082;-67
2024/02/11 04:23:13;;;;;;;5.15;3.80;;;10.90;99.90;;;;;;5046318;28;20096;-67
2024/02/11 04:25:41;;;;;;;6.68;4.50;;;10.80;99.90;;;;;;5049230;28;20025;-66
2024/02/11 04:28:07;;;;;;;5.05;3.75;;;10.80;99.90;;;;;;5048554;28;20017;-67
2024/02/11 04:30:37;;;;;;;6.53;4.75;;;10.80;99.90;;;;;;5044584;28;20108;-67
2024/02/11 04:33:06;;;;;;;4.30;3.60;;;10.80;99.90;;;;;;5045921;28;20021;-67
2024/02/11 04:35:33;;;;;;;4.63;3.47;;;10.80;99.90;;;;;;5046744;28;20198;-67
2024/02/11 04:38:00;;;;;;;4.22;3.20;;;10.90;99.90;;;;;;5047107;28;20060;-67
2024/02/11 04:40:26;;;;;;;5.32;3.80;;;10.90;99.90;;;;;;5046950;28;20045;-67
2024/02/11 04:42:54;;;;;;;4.80;3.33;;;10.90;99.90;;;;;;5048770;28;20021;-68
2024/02/11 04:45:21;;;;;;;5.45;3.90;;;10.90;99.90;;;;;;5048356;28;20029;-68
2024/02/11 04:47:53;;;;;;;5.90;4.10;;;10.80;99.90;;;;;;5048574;28;20029;-66
2024/02/11 04:50:21;;;;;;;4.70;3.75;;;10.80;99.90;;;;;;5048340;28;20029;-67
2024/02/11 04:52:54;;;;;;;5.20;3.38;;;10.80;99.90;;;;;;5047204;28;20104;-67
2024/02/11 04:55:29;;;;;;;3.75;2.92;;;10.80;99.90;;;;;;5048668;28;20143;-66
2024/02/11 04:57:58;;;;;;;4.38;3.05;;;10.80;99.90;;;;;;5046258;28;20514;-67
2024/02/11 05:00:27;;;;;;;4.03;3.10;;;10.90;99.90;;;;;;5048211;28;20079;-66
2024/02/11 05:02:55;;;;;;;5.32;3.78;;;10.90;99.90;;;;;;5048938;28;20048;-67
2024/02/11 05:05:28;;;;;;;5.97;4.65;;;10.80;99.90;;;;;;5048505;28;20549;-68
2024/02/11 05:08:00;;;;;;;4.80;3.67;;;10.80;99.90;;;;;;5046902;28;20100;-66
2024/02/11 05:10:34;;;;;;;4.63;3.40;;;10.80;99.90;;;;;;5048382;28;20024;-66
2024/02/11 05:13:04;;;;;;;4.45;3.35;;;10.90;99.90;;;;;;5048487;28;20023;-67
2024/02/11 05:15:42;;;;;;;3.70;2.78;;;10.90;99.90;;;;;;5048106;28;20029;-67
2024/02/11 05:18:19;;;;;;;3.72;2.92;;;11.00;99.90;;;;;;5047151;28;20037;-66
2024/02/11 05:20:45;;;;;;;4.03;2.97;;;11.00;99.90;;;;;;5047820;28;20698;-66
2024/02/11 05:23:11;;;;;;;4.57;3.30;;;11.00;99.90;;;;;;5047470;28;20104;-67
2024/02/11 05:25:43;;;;;;;5.35;4.07;;;11.00;99.90;;;;;;5048113;28;20055;-66
2024/02/11 05:28:12;;;;;;;4.60;3.33;;;11.00;99.90;;;;;;5048139;28;20100;-67
2024/02/11 05:30:42;;;;;;;7.45;5.15;;;11.00;99.90;;;;;;5047308;28;21582;-66
2024/02/11 05:33:09;;;;;;;5.78;4.45;;;10.90;99.90;;;;;;5048241;28;20724;-68
2024/02/11 05:35:37;;;;;;;5.30;3.92;;;11.00;99.90;;;;;;5047994;28;20074;-66
2024/02/11 05:38:03;;;;;;;5.72;4.22;;;11.00;99.90;;;;;;5044767;28;20027;-65
2024/02/11 05:40:35;;;;;;;6.82;4.75;;;10.90;99.90;;;;;;5047174;28;20418;-66
2024/02/11 05:43:01;;;;;;;5.60;4.10;;;10.90;99.90;;;;;;5045206;28;20037;-67
2024/02/11 05:45:27;;;;;;;5.03;3.78;;;10.90;99.90;;;;;;5044396;28;20687;-67
2024/02/11 05:47:53;;;;;;;3.55;2.85;;;10.90;99.90;;;;;;5045580;28;20032;-67
2024/02/11 05:50:20;;;;;;;4.47;3.33;;;11.00;99.90;;;;;;5047297;28;20132;-67
2024/02/11 05:52:49;;;;;;;4.47;3.50;;;11.00;99.90;;;;;;5045521;28;20647;-68
2024/02/11 05:55:18;;;;;;;4.68;3.40;;;11.00;99.90;;;;;;5045400;28;20434;-68
2024/02/11 05:57:45;;;;;;;4.40;3.22;;;11.00;99.90;;;;;;5048594;28;20025;-67
2024/02/11 06:00:12;;;;;;;4.47;3.35;;;11.00;99.90;;;;;;5045761;28;20391;-66
2024/02/11 06:02:43;;;;;;;4.38;3.22;;;11.00;99.90;;;;;;5047364;28;20024;-67
2024/02/11 06:05:12;;;;;;;4.63;3.20;;;11.10;99.90;;;;;;5043297;28;20472;-67
2024/02/11 06:08:04;;;;;;;5.13;3.50;;;11.10;99.90;;;;;;5046923;28;20024;-67
2024/02/11 06:10:33;;;;;;;5.35;3.35;;;11.10;99.90;;;;;;5045102;28;20033;-66
2024/02/11 06:12:59;;;;;;;4.15;3.10;;;11.00;99.90;;;;;;5044847;28;20029;-67
2024/02/11 06:15:27;;;;;;;6.05;3.55;;;11.10;99.90;;;;;;5045370;28;20097;-67
2024/02/11 06:17:53;;;;;;;3.95;2.83;;;11.10;99.90;;;;;;5044775;28;20484;-67
2024/02/11 06:20:20;;;;;;;3.67;3.05;;;11.10;99.90;;;;;;5046603;28;20075;-66
2024/02/11 06:22:46;;;;;;;9.05;5.95;;;11.20;99.90;;;;;;5047042;28;20059;-67
2024/02/11 06:25:13;;;;;;;7.25;5.07;;;11.20;99.90;;;;;;5046990;28;20036;-67
2024/02/11 06:27:39;;;;;;;7.32;5.22;;;11.20;99.90;;;;;;5046293;28;20024;-67
2024/02/11 06:30:11;;;;;;;7.13;5.18;;;11.20;99.90;;;;;;5047427;28;20025;-66
2024/02/11 06:32:38;;;;;;;5.10;4.25;;;11.30;99.90;;;;;;5045774;28;20025;-68
2024/02/11 06:35:06;;;;;;;7.50;4.72;;;11.30;99.90;;;;;;5049682;28;20139;-67
2024/02/11 06:37:32;;;;;;;6.72;4.80;;;11.30;99.90;;;;;;5046048;28;20033;-66
2024/02/11 06:39:58;;;;;;;6.40;4.00;;;11.30;99.90;;;;;;5049993;28;20479;-67
2024/02/11 06:42:26;;;;;;;7.53;4.93;;;11.30;99.90;;;;;;5048032;28;20028;-67
2024/02/11 06:44:53;;;;;;;9.18;6.80;;;11.40;99.90;;;;;;5049025;28;20091;-67
2024/02/11 06:47:19;;;;;;;14.60;9.63;;;11.40;99.90;;;;;;5048117;28;20367;-67
2024/02/11 06:49:45;;;;;;;12.70;8.68;;;11.30;99.90;;;;;;5045723;28;20021;-68
2024/02/11 06:52:11;;;;;;;10.15;6.18;;;11.20;99.90;;;;;;5046479;28;20048;-67
2024/02/11 06:54:39;;;;;;;7.07;4.68;;;11.10;99.90;;;;;;5046633;28;20127;-68
2024/02/11 06:57:05;;;;;;;6.38;4.05;;;11.00;99.90;;;;;;5046135;28;20381;-68
2024/02/11 06:59:32;;;;;;;4.63;3.15;;;10.90;99.90;;;;;;5044935;28;20056;-67
2024/02/11 07:01:59;;;;;;;3.85;2.67;;;10.80;99.90;;;;;;5046790;28;20021;-68
2024/02/11 07:04:25;;;;;;;3.33;2.25;;;10.70;99.90;;;;;;5046203;28;20041;-67
2024/02/11 07:06:53;;;;;;;3.13;2.38;;;10.70;99.90;;;;;;5045570;28;20079;-68
2024/02/11 07:09:22;;;;;;;3.63;2.20;;;10.60;99.90;;;;;;5046505;28;20025;-67
2024/02/11 07:11:49;;;;;;;3.60;2.80;;;10.60;99.90;;;;;;5047434;28;20025;-68
2024/02/11 07:14:15;;;;;;;3.58;2.30;;;10.60;99.90;;;;;;5044326;28;20028;-68
2024/02/11 07:16:45;;;;;;;4.00;2.95;;;10.50;99.90;;;;;;5045804;28;20029;-69
2024/02/11 07:19:11;;;;;;;3.35;2.63;;;10.50;99.90;;;;;;5044824;28;20565;-69
2024/02/11 07:21:39;;;;;;;3.33;2.30;;;10.50;99.90;;;;;;5047071;28;20060;-69
2024/02/11 07:24:06;;;;;;;5.72;4.10;;;10.50;99.90;;;;;;5046974;28;20031;-69
2024/02/11 07:26:31;;;;;;;5.50;3.45;;;10.40;99.90;;;;;;5046184;28;20485;-68
2024/02/11 07:28:57;;;;;;;6.38;4.10;;;10.40;99.90;;;;;;5047107;28;20024;-67
2024/02/11 07:31:23;;;;;;;6.68;4.00;;;10.30;99.90;;;;;;5043089;28;20034;-67
2024/02/11 07:33:49;;;;;;;7.68;4.85;;;10.30;99.90;;;;;;5043957;28;20107;-67
2024/02/11 07:36:16;;;;;;;5.00;3.42;;;10.20;99.90;;;;;;5041257;28;20025;-64
2024/02/11 07:38:43;;;;;;;7.85;5.18;;;10.20;99.90;;;;;;5045917;28;20029;-68
2024/02/11 07:41:09;;;;;;;7.93;5.22;;;10.20;99.90;;;;;;5045367;28;20104;-68
2024/02/11 07:43:37;;;;;;;7.25;4.22;;;10.10;99.90;;;;;;5041218;28;20028;-68
2024/02/11 07:46:03;;;;;;;6.03;3.70;;;10.10;99.90;;;;;;5042421;28;20044;-67
2024/02/11 07:48:30;;;;;;;7.63;4.50;;;10.20;99.90;;;;;;5041686;28;20017;-67
2024/02/11 07:50:56;;;;;;;8.10;3.83;;;10.10;99.90;;;;;;5046870;28;20025;-67
2024/02/11 07:53:21;;;;;;;7.70;4.78;;;10.10;99.90;;;;;;5047179;28;20045;-67
2024/02/11 07:55:47;;;;;;;5.65;3.63;;;10.10;99.90;;;;;;5045781;28;20025;-66
2024/02/11 07:58:13;;;;;;;5.75;3.65;;;10.10;99.90;;;;;;5046363;28;20060;-68
2024/02/11 08:00:39;;;;;;;6.68;3.85;;;10.10;99.90;;;;;;5045133;28;20115;-67
2024/02/11 08:03:07;;;;;;;7.55;4.15;;;10.10;99.90;;;;;;5043399;28;20029;-68
2024/02/11 08:05:34;;;;;;;6.00;3.90;;;10.10;99.90;;;;;;5046052;28;20037;-68
2024/02/11 08:07:59;;;;;;;5.95;3.17;;;10.00;99.90;;;;;;5047314;28;20020;-67
2024/02/11 08:10:25;;;;;;;6.15;3.17;;;10.10;99.90;;;;;;5047399;28;20032;-66
2024/02/11 08:12:52;;;;;;;6.57;3.58;;;10.10;99.90;;;;;;5044328;28;20052;-66
2024/02/11 08:15:18;;;;;;;10.65;4.80;;;10.00;99.90;;;;;;5044861;28;20060;-66
2024/02/11 08:17:43;;;;;;;9.50;4.65;;;10.00;99.90;;;;;;5046697;28;20111;-68
2024/02/11 08:20:09;;;;;;;6.43;3.67;;;10.00;99.90;;;;;;5045615;28;20142;-67
2024/02/11 08:22:38;;;;;;;6.95;3.75;;;10.00;99.90;;;;;;5047157;28;20044;-67
2024/02/11 08:25:08;;;;;;;9.90;5.13;;;9.90;99.90;;;;;;5045380;28;20028;-67
2024/02/11 08:27:35;;;;;;;8.38;3.83;;;9.90;99.90;;;;;;5043863;28;20051;-68
2024/02/11 08:30:01;;;;;;;7.35;3.97;;;9.90;99.90;;;;;;5046279;28;20017;-67
2024/02/11 08:32:26;;;;;;;6.50;3.40;;;9.90;99.90;;;;;;5044914;28;20043;-68
2024/02/11 08:34:52;;;;;;;6.38;3.10;;;9.90;99.90;;;;;;5047695;28;20060;-67
2024/02/11 08:37:18;;;;;;;4.53;2.55;;;9.90;99.90;;;;;;5045326;28;20052;-68
2024/02/11 08:39:43;;;;;;;4.85;2.47;;;9.90;99.90;;;;;;5047587;28;20082;-68
2024/02/11 08:42:09;;;;;;;4.50;2.30;;;9.90;99.90;;;;;;5048375;28;20074;-68
2024/02/11 08:44:35;;;;;;;4.53;2.60;;;9.90;99.90;;;;;;5045462;28;20048;-67
2024/02/11 08:47:01;;;;;;;5.55;2.97;;;9.90;99.90;;;;;;5042741;28;20036;-67
2024/02/11 08:49:28;;;;;;;5.05;2.60;;;10.00;99.90;;;;;;5047686;28;20438;-67
2024/02/11 08:51:55;;;;;;;6.25;2.95;;;10.00;99.90;;;;;;5048057;28;20047;-67
2024/02/11 08:54:20;;;;;;;7.15;2.95;;;10.00;99.90;;;;;;5047192;28;20028;-66
2024/02/11 08:56:47;;;;;;;5.53;3.00;;;10.10;99.90;;;;;;5042635;28;20033;-67
2024/02/11 08:59:13;;;;;;;6.88;3.50;;;10.10;99.90;;;;;;5045366;28;20112;-71
2024/02/11 09:01:40;;;;;;;5.35;2.80;;;10.20;99.90;;;;;;5045380;28;20583;-67
2024/02/11 09:04:10;;;;;;;5.78;3.13;;;10.20;99.90;;;;;;5049852;28;20024;-67
2024/02/11 09:06:35;;;;;;;4.88;2.40;;;10.20;99.90;;;;;;5044349;28;20526;-67
2024/02/11 09:09:01;;;;;;;7.40;3.28;;;10.20;99.90;;;;;;5047405;28;20050;-66
2024/02/11 09:11:26;;;;;;;6.47;3.40;;;10.30;99.80;;;;;;5044940;28;20036;-66
2024/02/11 09:13:53;;;;;;;7.85;3.40;;;10.30;99.70;;;;;;5046027;28;20029;-66
2024/02/11 09:16:19;;;;;;;7.40;4.00;;;10.30;99.60;;;;;;5042994;28;20102;-67
2024/02/11 09:18:44;;;;;;;6.70;3.80;;;10.30;99.40;;;;;;5043639;28;20477;-66
2024/02/11 09:21:10;;;;;;;9.82;4.32;;;10.30;99.40;;;;;;5046721;28;20040;-66
2024/02/11 09:23:36;;;;;;;9.25;4.75;;;10.30;99.30;;;;;;5044806;28;20028;-67
2024/02/11 09:26:02;;;;;;;5.95;3.80;;;10.30;99.30;;;;;;5047097;28;20099;-67
2024/02/11 09:28:29;;;;;;;7.22;3.75;;;10.30;99.30;;;;;;5044676;28;20056;-67
2024/02/11 09:30:55;;;;;;;7.18;3.40;;;10.40;99.30;;;;;;5044505;28;20025;-67
2024/02/11 09:33:21;;;;;;;8.07;4.30;;;10.40;99.20;;;;;;5043400;28;20176;-67
2024/02/11 09:35:47;;;;;;;7.68;4.53;;;10.40;99.20;;;;;;5049406;28;20044;-67
2024/02/11 09:38:14;;;;;;;8.63;4.38;;;10.40;99.20;;;;;;5045557;28;20047;-67
2024/02/11 09:40:39;;;;;;;7.55;4.15;;;10.50;99.20;;;;;;5047173;28;20119;-66
2024/02/11 09:43:07;;;;;;;8.50;4.88;;;10.50;99.10;;;;;;5044862;28;20052;-68
2024/02/11 09:45:34;;;;;;;8.05;5.07;;;10.50;99.00;;;;;;5041579;28;20391;-68
2024/02/11 09:48:04;;;;;;;7.40;4.25;;;10.50;99.00;;;;;;5043814;28;20025;-66
2024/02/11 09:50:30;;;;;;;6.00;3.42;;;10.50;99.00;;;;;;5045278;28;20048;-67
2024/02/11 09:52:56;;;;;;;7.50;3.95;;;10.60;99.00;;;;;;5046482;28;20458;-68
2024/02/11 09:55:22;;;;;;;6.78;3.80;;;10.60;99.00;;;;;;5045904;28;20021;-68
2024/02/11 09:57:48;;;;;;;7.38;3.80;;;10.70;98.90;;;;;;5044539;28;20111;-68
2024/02/11 10:00:14;;;;;;;11.52;5.28;;;10.70;98.90;;;;;;5042098;28;20115;-69
2024/02/11 10:02:40;;;;;;;8.65;4.43;;;10.70;98.80;;;;;;5043755;28;20025;-67
2024/02/11 10:05:09;;;;;;;10.00;5.28;;;10.70;98.70;;;;;;5044799;28;20486;-69
2024/02/11 10:07:39;;;;;;;7.22;4.25;;;10.60;98.60;;;;;;5039367;28;20364;-69
2024/02/11 10:10:05;;;;;;;7.55;3.90;;;10.60;98.70;;;;;;5045136;28;20067;-68
2024/02/11 10:12:32;;;;;;;11.25;5.70;;;10.70;98.80;;;;;;5041613;28;20028;-68
2024/02/11 10:14:57;;;;;;;8.68;4.25;;;10.70;98.70;;;;;;5044436;28;20029;-68
2024/02/11 10:17:24;;;;;;;7.10;4.05;;;10.70;98.70;;;;;;5043153;28;20619;-68
2024/02/11 10:19:51;;;;;;;9.73;4.97;;;10.70;98.70;;;;;;5046010;28;20067;-68
2024/02/11 10:22:18;;;;;;;13.43;6.03;;;10.80;98.50;;;;;;5042215;28;20729;-68
2024/02/11 10:24:45;;;;;;;9.85;5.45;;;10.70;98.40;;;;;;5042991;28;20017;-69
2024/02/11 10:27:14;;;;;;;12.02;5.75;;;10.70;98.40;;;;;;5043730;28;20024;-69
2024/02/11 10:29:40;;;;;;;8.25;4.93;;;10.70;98.50;;;;;;5044571;28;20017;-67
2024/02/11 10:32:13;;;;;;;12.60;6.80;;;10.70;98.50;;;;;;5044421;28;20045;-67
2024/02/11 10:34:41;;;;;;;12.55;6.75;;;10.70;98.40;;;;;;5044481;28;20033;-67
2024/02/11 10:37:07;;;;;;;13.35;6.95;;;10.70;98.30;;;;;;5044449;28;20028;-67
2024/02/11 10:39:37;;;;;;;10.00;5.93;;;10.70;98.30;;;;;;5041862;28;20462;-67
2024/02/11 10:42:02;;;;;;;9.75;5.13;;;10.70;98.30;;;;;;5045365;28;20553;-67
2024/02/11 10:44:28;;;;;;;15.45;7.18;;;10.80;98.20;;;;;;5047039;28;20029;-68
2024/02/11 10:46:55;;;;;;;10.50;5.30;;;10.80;98.10;;;;;;5045793;28;20664;-67
2024/02/11 10:49:20;;;;;;;7.72;4.60;;;10.80;98.10;;;;;;5039100;28;20037;-67
2024/02/11 10:51:52;;;;;;;9.57;4.95;;;10.90;98.20;;;;;;5043910;28;20453;-68
2024/02/11 10:54:18;;;;;;;10.10;5.90;;;11.00;98.10;;;;;;5044746;28;20103;-67
2024/02/11 10:56:44;;;;;;;13.23;6.90;;;11.00;98.00;;;;;;5042213;28;20021;-68
2024/02/11 10:59:20;;;;;;;14.23;7.38;;;11.00;97.80;;;;;;5043917;28;20041;-67
2024/02/11 11:01:47;;;;;;;15.07;7.47;;;11.00;97.70;;;;;;5044169;28;20491;-68
2024/02/11 11:04:22;;;;;;;14.77;7.30;;;11.00;97.60;;;;;;5041973;28;20017;-68
2024/02/11 11:06:51;;;;;;;13.30;7.60;;;11.00;97.60;;;;;;5043532;28;20400;-68
2024/02/11 11:09:19;;;;;;;14.55;6.88;;;10.90;97.50;;;;;;5043425;28;20384;-68
2024/02/11 11:11:45;;;;;;;8.38;5.25;;;11.00;97.60;;;;;;5043730;28;20037;-68
2024/02/11 11:14:12;;;;;;;8.95;4.88;;;11.00;97.60;;;;;;5045157;28;20025;-70
2024/02/11 11:16:38;;;;;;;12.45;6.15;;;11.00;97.50;;;;;;5041926;28;20021;-68
2024/02/11 11:19:12;;;;;;;10.05;5.93;;;11.00;97.50;;;;;;5038171;28;20039;-68
2024/02/11 11:21:38;;;;;;;9.80;5.97;;;11.00;97.60;;;;;;5044044;28;20120;-68
2024/02/11 11:24:04;;;;;;;11.52;6.28;;;11.00;97.60;;;;;;5048300;28;20446;-68
2024/02/11 11:26:30;;;;;;;10.10;6.00;;;11.00;97.60;;;;;;5047069;28;20024;-67
2024/02/11 11:29:03;;;;;;;14.13;6.40;;;11.00;97.60;;;;;;5044823;28;20872;-67
2024/02/11 11:31:34;;;;;;;11.68;6.03;;;10.90;97.50;;;;;;5048463;28;20518;-67
2024/02/11 11:34:00;;;;;;;10.27;5.03;;;10.90;97.40;;;;;;5044448;28;20079;-67
2024/02/11 11:36:26;;;;;;;10.00;4.25;;;10.90;97.40;;;;;;5042014;28;20029;-68
2024/02/11 11:38:51;;;;;;;11.45;5.53;;;11.00;97.40;;;;;;5043444;28;20044;-68
2024/02/11 11:41:17;;;;;;;10.63;4.75;;;10.90;97.40;;;;;;5049161;28;20062;-68
2024/02/11 11:43:46;;;;;;;6.45;3.90;;;10.90;97.40;;;;;;5045341;28;20043;-67
2024/02/11 11:46:14;;;;;;;7.53;3.22;;;11.00;97.40;;;;;;5047357;28;20107;-68
2024/02/11 11:48:40;;;;;;;5.90;3.47;;;11.00;97.40;;;;;;5044334;28;20278;-67
2024/02/11 11:51:07;;;;;;;9.88;4.75;;;11.00;97.40;;;;;;5046204;28;20033;-68
2024/02/11 11:53:33;;;;;;;15.02;6.75;;;11.00;97.20;;;;;;5042636;28;20051;-67
2024/02/11 11:56:03;;;;;;;11.40;5.90;;;10.90;97.10;;;;;;5046398;28;20055;-68
2024/02/11 11:58:30;;;;;;;9.77;4.65;;;10.90;97.10;;;;;;5045018;28;20025;-66
2024/02/11 12:00:59;;;;;;;7.75;4.68;;;10.80;97.10;;;;;;5047082;28;20079;-68
2024/02/11 12:03:29;;;;;;;6.72;3.63;;;10.80;97.20;;;;;;5045567;28;20021;-68
2024/02/11 12:05:56;;;;;;;7.20;4.13;;;10.90;97.30;;;;;;5044639;28;20035;-68
2024/02/11 12:08:23;;;;;;;9.80;4.47;;;11.00;97.20;;;;;;5044326;28;20021;-68
2024/02/11 12:11:00;;;;;;;9.02;4.57;;;10.90;97.10;;;;;;5043719;28;20029;-67
2024/02/11 12:13:29;;;;;;;5.97;3.70;;;10.90;97.10;;;;;;5043348;28;20020;-67
2024/02/11 12:15:55;;;;;;;11.77;5.07;;;10.90;97.10;;;;;;5046681;28;20027;-67
2024/02/11 12:18:22;;;;;;;6.55;4.10;;;11.00;97.10;;;;;;5042869;28;20036;-67
2024/02/11 12:20:48;;;;;;;8.35;3.70;;;11.00;97.00;;;;;;5043770;28;20068;-68
2024/02/11 12:23:17;;;;;;;6.30;3.20;;;11.00;97.10;;;;;;5047300;28;20134;-68
2024/02/11 12:25:44;;;;;;;6.72;3.00;;;11.10;97.10;;;;;;5044706;28;20029;-67
2024/02/11 12:28:10;;;;;;;5.13;3.15;;;11.10;97.10;;;;;;5043467;28;20086;-67
2024/02/11 12:30:40;;;;;;;6.35;2.83;;;11.20;97.00;;;;;;5045723;28;20032;-67
2024/02/11 12:33:06;;;;;;;9.68;4.65;;;11.20;97.00;;;;;;5044680;28;20029;-67
2024/02/11 12:35:34;;;;;;;10.50;4.47;;;11.10;96.80;;;;;;5044918;28;20049;-67
2024/02/11 12:38:01;;;;;;;9.75;4.40;;;11.10;96.70;;;;;;5042518;28;20395;-67
2024/02/11 12:40:29;;;;;;;6.15;3.78;;;11.10;96.80;;;;;;5041830;28;20108;-68
2024/02/11 12:43:01;;;;;;;5.85;3.05;;;11.10;96.80;;;;;;5044731;28;20035;-67
2024/02/11 12:45:28;;;;;;;7.55;3.55;;;11.20;96.80;;;;;;5042751;28;20388;-67